Aldwick, United Kingdom
Current Conditions -  °F | °C
As of 2:50 PM on Saturday 20 Dec 2014 (Local Time) from EGGD Reporting Station
Broken Clouds Broken Clouds  
Wind Chill:   Ceiling: 4200
Heat Index:   Visibility: 6mi
Dew Point:   Wind: 15mph
Humidity: 81%   Direction: 270°W
Pressure: 30.39"   Gusts: NA
Location:  51.34°N, 2.77°W
Report Text: EGGD 201450Z 27013KT 9999 FEW032 BKN042 07/04 Q1029
Loading
Personal Weather Stations






























Interactive Weather Map New forecast layout! Learn more

10-Day Weather Forecast

Advertisements
Track Severe Weather on mobile